sensor_id;sensor_type;location;lat;lon;timestamp;P1;durP1;ratioP1;P2;durP2;ratioP2
60038;SDS011;45916;52.734;6.544;2023-04-10T00:02:08;75.38;;;67.28;;
60038;SDS011;45916;52.734;6.544;2023-04-10T00:04:34;76.05;;;67.90;;
60038;SDS011;45916;52.734;6.544;2023-04-10T00:07:00;74.20;;;66.63;;
60038;SDS011;45916;52.734;6.544;2023-04-10T00:09:25;75.43;;;67.63;;
60038;SDS011;45916;52.734;6.544;2023-04-10T00:11:52;77.68;;;69.25;;
60038;SDS011;45916;52.734;6.544;2023-04-10T00:14:18;74.45;;;66.43;;
60038;SDS011;45916;52.734;6.544;2023-04-10T00:16:48;74.45;;;66.75;;
60038;SDS011;45916;52.734;6.544;2023-04-10T00:19:14;76.45;;;68.50;;
60038;SDS011;45916;52.734;6.544;2023-04-10T00:21:40;76.07;;;68.15;;
60038;SDS011;45916;52.734;6.544;2023-04-10T00:24:06;74.10;;;66.32;;
60038;SDS011;45916;52.734;6.544;2023-04-10T00:26:32;74.78;;;66.68;;
60038;SDS011;45916;52.734;6.544;2023-04-10T00:28:59;74.13;;;66.20;;
60038;SDS011;45916;52.734;6.544;2023-04-10T00:31:25;74.63;;;67.13;;
60038;SDS011;45916;52.734;6.544;2023-04-10T00:33:51;78.35;;;70.20;;
60038;SDS011;45916;52.734;6.544;2023-04-10T00:36:17;74.25;;;66.65;;
60038;SDS011;45916;52.734;6.544;2023-04-10T00:38:43;78.40;;;70.15;;
60038;SDS011;45916;52.734;6.544;2023-04-10T00:41:09;77.95;;;70.13;;
60038;SDS011;45916;52.734;6.544;2023-04-10T00:43:35;78.03;;;68.18;;
60038;SDS011;45916;52.734;6.544;2023-04-10T00:46:01;78.05;;;69.72;;
60038;SDS011;45916;52.734;6.544;2023-04-10T00:48:28;78.80;;;70.47;;
60038;SDS011;45916;52.734;6.544;2023-04-10T00:50:54;80.47;;;72.07;;
60038;SDS011;45916;52.734;6.544;2023-04-10T00:53:19;82.93;;;73.82;;
60038;SDS011;45916;52.734;6.544;2023-04-10T00:55:46;78.68;;;70.45;;
60038;SDS011;45916;52.734;6.544;2023-04-10T00:58:13;82.75;;;74.18;;
60038;SDS011;45916;52.734;6.544;2023-04-10T01:00:39;81.93;;;73.68;;
60038;SDS011;45916;52.734;6.544;2023-04-10T01:03:09;80.30;;;72.13;;
60038;SDS011;45916;52.734;6.544;2023-04-10T01:05:59;84.82;;;76.13;;
60038;SDS011;45916;52.734;6.544;2023-04-10T01:08:33;85.28;;;76.75;;
60038;SDS011;45916;52.734;6.544;2023-04-10T01:11:05;84.47;;;75.68;;
60038;SDS011;45916;52.734;6.544;2023-04-10T01:13:42;85.60;;;76.38;;
60038;SDS011;45916;52.734;6.544;2023-04-10T01:16:30;84.75;;;75.97;;
60038;SDS011;45916;52.734;6.544;2023-04-10T01:19:14;83.90;;;75.63;;
60038;SDS011;45916;52.734;6.544;2023-04-10T01:21:53;88.68;;;79.43;;
60038;SDS011;45916;52.734;6.544;2023-04-10T01:27:36;85.35;;;76.35;;
60038;SDS011;45916;52.734;6.544;2023-04-10T01:30:11;86.95;;;78.13;;
60038;SDS011;45916;52.734;6.544;2023-04-10T01:32:41;88.88;;;79.57;;
60038;SDS011;45916;52.734;6.544;2023-04-10T01:35:08;85.93;;;76.72;;
60038;SDS011;45916;52.734;6.544;2023-04-10T01:37:36;87.37;;;78.27;;
60038;SDS011;45916;52.734;6.544;2023-04-10T01:40:07;87.00;;;77.88;;
60038;SDS011;45916;52.734;6.544;2023-04-10T01:42:40;88.25;;;79.28;;
60038;SDS011;45916;52.734;6.544;2023-04-10T01:45:14;88.07;;;79.18;;
60038;SDS011;45916;52.734;6.544;2023-04-10T01:47:43;89.70;;;80.43;;
60038;SDS011;45916;52.734;6.544;2023-04-10T01:50:09;88.55;;;79.22;;
60038;SDS011;45916;52.734;6.544;2023-04-10T01:52:36;87.60;;;78.93;;
60038;SDS011;45916;52.734;6.544;2023-04-10T01:55:02;90.93;;;81.45;;
60038;SDS011;45916;52.734;6.544;2023-04-10T01:57:30;90.38;;;81.22;;
60038;SDS011;45916;52.734;6.544;2023-04-10T01:59:56;89.20;;;79.88;;
60038;SDS011;45916;52.734;6.544;2023-04-10T02:02:22;89.70;;;80.60;;
60038;SDS011;45916;52.734;6.544;2023-04-10T02:04:48;92.78;;;83.13;;
60038;SDS011;45916;52.734;6.544;2023-04-10T02:07:19;90.70;;;81.35;;
60038;SDS011;45916;52.734;6.544;2023-04-10T02:12:17;90.68;;;81.25;;
60038;SDS011;45916;52.734;6.544;2023-04-10T02:14:55;92.85;;;82.88;;
60038;SDS011;45916;52.734;6.544;2023-04-10T02:17:26;90.50;;;81.18;;
60038;SDS011;45916;52.734;6.544;2023-04-10T02:22:20;89.78;;;80.10;;
60038;SDS011;45916;52.734;6.544;2023-04-10T02:24:48;94.10;;;83.65;;
60038;SDS011;45916;52.734;6.544;2023-04-10T02:27:14;88.60;;;79.50;;
60038;SDS011;45916;52.734;6.544;2023-04-10T02:29:40;91.00;;;81.40;;
60038;SDS011;45916;52.734;6.544;2023-04-10T02:32:06;89.47;;;80.57;;
60038;SDS011;45916;52.734;6.544;2023-04-10T02:34:32;89.35;;;79.85;;
60038;SDS011;45916;52.734;6.544;2023-04-10T02:36:57;91.22;;;82.10;;
60038;SDS011;45916;52.734;6.544;2023-04-10T02:39:23;90.97;;;81.50;;
60038;SDS011;45916;52.734;6.544;2023-04-10T02:41:49;87.50;;;78.45;;
60038;SDS011;45916;52.734;6.544;2023-04-10T02:44:15;87.57;;;78.95;;
60038;SDS011;45916;52.734;6.544;2023-04-10T02:46:40;91.65;;;82.13;;
60038;SDS011;45916;52.734;6.544;2023-04-10T02:49:06;88.53;;;79.43;;
60038;SDS011;45916;52.734;6.544;2023-04-10T02:51:35;87.95;;;79.03;;
60038;SDS011;45916;52.734;6.544;2023-04-10T02:54:01;87.40;;;78.28;;
60038;SDS011;45916;52.734;6.544;2023-04-10T02:56:27;88.38;;;78.05;;
60038;SDS011;45916;52.734;6.544;2023-04-10T02:58:53;87.43;;;78.25;;
60038;SDS011;45916;52.734;6.544;2023-04-10T03:01:18;88.85;;;79.22;;
60038;SDS011;45916;52.734;6.544;2023-04-10T03:03:44;82.18;;;73.53;;
60038;SDS011;45916;52.734;6.544;2023-04-10T03:06:10;84.28;;;75.63;;
60038;SDS011;45916;52.734;6.544;2023-04-10T03:08:36;82.43;;;73.80;;
60038;SDS011;45916;52.734;6.544;2023-04-10T03:11:01;82.13;;;73.45;;
60038;SDS011;45916;52.734;6.544;2023-04-10T03:13:27;83.35;;;74.97;;
60038;SDS011;45916;52.734;6.544;2023-04-10T03:15:53;82.65;;;73.13;;
60038;SDS011;45916;52.734;6.544;2023-04-10T03:18:18;79.78;;;71.38;;
60038;SDS011;45916;52.734;6.544;2023-04-10T03:20:44;78.05;;;69.72;;
60038;SDS011;45916;52.734;6.544;2023-04-10T03:23:10;81.53;;;73.00;;
60038;SDS011;45916;52.734;6.544;2023-04-10T03:25:36;80.20;;;71.75;;
60038;SDS011;45916;52.734;6.544;2023-04-10T03:28:01;77.95;;;69.45;;
60038;SDS011;45916;52.734;6.544;2023-04-10T03:30:27;74.38;;;66.55;;
60038;SDS011;45916;52.734;6.544;2023-04-10T03:32:53;78.10;;;67.22;;
60038;SDS011;45916;52.734;6.544;2023-04-10T03:35:19;70.22;;;63.03;;
60038;SDS011;45916;52.734;6.544;2023-04-10T03:37:44;71.45;;;63.67;;
60038;SDS011;45916;52.734;6.544;2023-04-10T03:40:10;71.75;;;63.40;;
60038;SDS011;45916;52.734;6.544;2023-04-10T03:42:36;74.60;;;66.50;;
60038;SDS011;45916;52.734;6.544;2023-04-10T03:45:02;72.32;;;64.72;;
60038;SDS011;45916;52.734;6.544;2023-04-10T03:47:32;73.38;;;64.88;;
60038;SDS011;45916;52.734;6.544;2023-04-10T03:49:58;73.20;;;64.90;;
60038;SDS011;45916;52.734;6.544;2023-04-10T03:52:24;73.68;;;64.90;;
60038;SDS011;45916;52.734;6.544;2023-04-10T03:54:52;73.20;;;65.20;;
60038;SDS011;45916;52.734;6.544;2023-04-10T03:57:18;73.38;;;65.03;;
60038;SDS011;45916;52.734;6.544;2023-04-10T03:59:48;74.38;;;65.28;;
60038;SDS011;45916;52.734;6.544;2023-04-10T04:02:13;76.60;;;68.57;;
60038;SDS011;45916;52.734;6.544;2023-04-10T04:04:39;74.38;;;64.82;;
60038;SDS011;45916;52.734;6.544;2023-04-10T04:07:05;73.97;;;66.13;;
60038;SDS011;45916;52.734;6.544;2023-04-10T04:09:30;75.97;;;67.95;;
60038;SDS011;45916;52.734;6.544;2023-04-10T04:11:56;71.95;;;63.75;;
60038;SDS011;45916;52.734;6.544;2023-04-10T04:14:22;76.43;;;68.13;;
60038;SDS011;45916;52.734;6.544;2023-04-10T04:16:48;74.15;;;66.13;;
60038;SDS011;45916;52.734;6.544;2023-04-10T04:19:14;75.28;;;67.13;;
60038;SDS011;45916;52.734;6.544;2023-04-10T04:21:40;72.13;;;64.28;;
60038;SDS011;45916;52.734;6.544;2023-04-10T04:24:05;76.22;;;67.90;;
60038;SDS011;45916;52.734;6.544;2023-04-10T04:26:31;78.38;;;68.28;;
60038;SDS011;45916;52.734;6.544;2023-04-10T04:28:57;73.10;;;65.20;;
60038;SDS011;45916;52.734;6.544;2023-04-10T04:31:24;76.32;;;65.53;;
60038;SDS011;45916;52.734;6.544;2023-04-10T04:33:56;75.80;;;66.05;;
60038;SDS011;45916;52.734;6.544;2023-04-10T04:36:24;73.55;;;65.50;;
60038;SDS011;45916;52.734;6.544;2023-04-10T04:38:51;75.05;;;66.22;;
60038;SDS011;45916;52.734;6.544;2023-04-10T04:41:18;72.03;;;64.15;;
60038;SDS011;45916;52.734;6.544;2023-04-10T04:43:43;72.63;;;62.67;;
60038;SDS011;45916;52.734;6.544;2023-04-10T04:46:11;79.40;;;68.07;;
60038;SDS011;45916;52.734;6.544;2023-04-10T04:48:37;73.07;;;64.07;;
60038;SDS011;45916;52.734;6.544;2023-04-10T04:51:05;72.80;;;64.63;;
60038;SDS011;45916;52.734;6.544;2023-04-10T04:53:31;78.63;;;66.07;;
60038;SDS011;45916;52.734;6.544;2023-04-10T04:55:57;72.38;;;62.88;;
60038;SDS011;45916;52.734;6.544;2023-04-10T04:58:22;68.57;;;60.42;;
60038;SDS011;45916;52.734;6.544;2023-04-10T05:00:50;71.57;;;62.88;;
60038;SDS011;45916;52.734;6.544;2023-04-10T05:03:16;69.82;;;61.70;;
60038;SDS011;45916;52.734;6.544;2023-04-10T05:05:41;75.20;;;64.57;;
60038;SDS011;45916;52.734;6.544;2023-04-10T05:08:07;71.18;;;59.17;;
60038;SDS011;45916;52.734;6.544;2023-04-10T05:10:33;70.75;;;61.03;;
60038;SDS011;45916;52.734;6.544;2023-04-10T05:12:59;73.88;;;63.40;;
60038;SDS011;45916;52.734;6.544;2023-04-10T05:15:25;71.50;;;63.35;;
60038;SDS011;45916;52.734;6.544;2023-04-10T05:17:50;71.22;;;62.05;;
60038;SDS011;45916;52.734;6.544;2023-04-10T05:20:17;75.75;;;62.03;;
60038;SDS011;45916;52.734;6.544;2023-04-10T05:22:43;74.47;;;63.70;;
60038;SDS011;45916;52.734;6.544;2023-04-10T05:25:09;78.38;;;63.83;;
60038;SDS011;45916;52.734;6.544;2023-04-10T05:27:35;73.68;;;64.03;;
60038;SDS011;45916;52.734;6.544;2023-04-10T05:30:01;69.45;;;61.92;;
60038;SDS011;45916;52.734;6.544;2023-04-10T05:32:27;64.90;;;50.38;;
60038;SDS011;45916;52.734;6.544;2023-04-10T05:34:53;73.03;;;62.85;;
60038;SDS011;45916;52.734;6.544;2023-04-10T05:37:19;72.07;;;61.72;;
60038;SDS011;45916;52.734;6.544;2023-04-10T05:39:45;70.15;;;62.45;;
60038;SDS011;45916;52.734;6.544;2023-04-10T05:42:10;72.97;;;62.22;;
60038;SDS011;45916;52.734;6.544;2023-04-10T05:44:37;74.22;;;65.03;;
60038;SDS011;45916;52.734;6.544;2023-04-10T05:47:03;72.82;;;64.28;;
60038;SDS011;45916;52.734;6.544;2023-04-10T05:49:29;74.22;;;63.20;;
60038;SDS011;45916;52.734;6.544;2023-04-10T05:51:55;84.53;;;64.57;;
60038;SDS011;45916;52.734;6.544;2023-04-10T05:54:20;71.47;;;62.88;;
60038;SDS011;45916;52.734;6.544;2023-04-10T05:56:46;71.10;;;61.75;;
60038;SDS011;45916;52.734;6.544;2023-04-10T05:59:12;67.07;;;60.13;;
60038;SDS011;45916;52.734;6.544;2023-04-10T06:01:40;69.25;;;60.67;;
60038;SDS011;45916;52.734;6.544;2023-04-10T06:04:09;66.22;;;58.70;;
60038;SDS011;45916;52.734;6.544;2023-04-10T06:06:34;67.47;;;60.08;;
60038;SDS011;45916;52.734;6.544;2023-04-10T06:09:00;64.28;;;57.38;;
60038;SDS011;45916;52.734;6.544;2023-04-10T06:11:26;67.78;;;60.47;;
60038;SDS011;45916;52.734;6.544;2023-04-10T06:13:52;67.53;;;60.22;;
60038;SDS011;45916;52.734;6.544;2023-04-10T06:16:18;66.00;;;59.08;;
60038;SDS011;45916;52.734;6.544;2023-04-10T06:18:44;66.55;;;59.28;;
60038;SDS011;45916;52.734;6.544;2023-04-10T06:21:11;67.82;;;60.40;;
60038;SDS011;45916;52.734;6.544;2023-04-10T06:23:37;65.85;;;57.08;;
60038;SDS011;45916;52.734;6.544;2023-04-10T06:26:03;67.68;;;60.38;;
60038;SDS011;45916;52.734;6.544;2023-04-10T06:28:29;66.10;;;58.92;;
60038;SDS011;45916;52.734;6.544;2023-04-10T06:30:55;59.70;;;53.30;;
60038;SDS011;45916;52.734;6.544;2023-04-10T06:33:21;60.53;;;54.05;;
60038;SDS011;45916;52.734;6.544;2023-04-10T06:35:47;61.58;;;54.17;;
60038;SDS011;45916;52.734;6.544;2023-04-10T06:38:13;60.03;;;53.58;;
60038;SDS011;45916;52.734;6.544;2023-04-10T06:40:39;58.65;;;52.45;;
60038;SDS011;45916;52.734;6.544;2023-04-10T06:43:05;58.97;;;52.63;;
60038;SDS011;45916;52.734;6.544;2023-04-10T06:45:31;59.20;;;51.67;;
60038;SDS011;45916;52.734;6.544;2023-04-10T06:47:56;57.42;;;51.45;;
60038;SDS011;45916;52.734;6.544;2023-04-10T06:50:22;57.55;;;51.45;;
60038;SDS011;45916;52.734;6.544;2023-04-10T06:52:48;56.60;;;50.33;;
60038;SDS011;45916;52.734;6.544;2023-04-10T06:55:13;57.88;;;50.17;;
60038;SDS011;45916;52.734;6.544;2023-04-10T06:57:39;53.85;;;48.00;;
60038;SDS011;45916;52.734;6.544;2023-04-10T07:00:06;56.28;;;50.05;;
60038;SDS011;45916;52.734;6.544;2023-04-10T07:02:33;52.85;;;47.45;;
60038;SDS011;45916;52.734;6.544;2023-04-10T07:04:59;52.83;;;47.03;;
60038;SDS011;45916;52.734;6.544;2023-04-10T07:07:24;50.17;;;44.85;;
60038;SDS011;45916;52.734;6.544;2023-04-10T07:09:50;50.35;;;44.63;;
60038;SDS011;45916;52.734;6.544;2023-04-10T07:12:16;52.03;;;46.10;;
60038;SDS011;45916;52.734;6.544;2023-04-10T07:14:42;49.83;;;44.47;;
60038;SDS011;45916;52.734;6.544;2023-04-10T07:17:07;49.08;;;43.30;;
60038;SDS011;45916;52.734;6.544;2023-04-10T07:19:33;46.25;;;41.35;;
60038;SDS011;45916;52.734;6.544;2023-04-10T07:21:59;44.08;;;39.55;;
60038;SDS011;45916;52.734;6.544;2023-04-10T07:24:25;44.20;;;39.45;;
60038;SDS011;45916;52.734;6.544;2023-04-10T07:26:51;44.60;;;39.83;;
60038;SDS011;45916;52.734;6.544;2023-04-10T07:29:17;45.03;;;40.45;;
60038;SDS011;45916;52.734;6.544;2023-04-10T07:31:43;44.33;;;39.78;;
60038;SDS011;45916;52.734;6.544;2023-04-10T07:34:09;44.22;;;39.70;;
60038;SDS011;45916;52.734;6.544;2023-04-10T07:36:35;43.58;;;39.17;;
60038;SDS011;45916;52.734;6.544;2023-04-10T07:39:01;42.80;;;38.42;;
60038;SDS011;45916;52.734;6.544;2023-04-10T07:41:27;40.75;;;36.45;;
60038;SDS011;45916;52.734;6.544;2023-04-10T07:43:52;40.85;;;36.60;;
60038;SDS011;45916;52.734;6.544;2023-04-10T07:46:18;40.92;;;36.53;;
60038;SDS011;45916;52.734;6.544;2023-04-10T07:48:44;40.45;;;36.25;;
60038;SDS011;45916;52.734;6.544;2023-04-10T07:51:11;38.60;;;34.67;;
60038;SDS011;45916;52.734;6.544;2023-04-10T07:53:37;37.70;;;33.80;;
60038;SDS011;45916;52.734;6.544;2023-04-10T07:56:03;36.78;;;33.05;;
60038;SDS011;45916;52.734;6.544;2023-04-10T07:58:30;36.35;;;32.65;;
60038;SDS011;45916;52.734;6.544;2023-04-10T08:00:56;34.67;;;31.17;;
60038;SDS011;45916;52.734;6.544;2023-04-10T08:03:22;35.00;;;31.40;;
60038;SDS011;45916;52.734;6.544;2023-04-10T08:05:47;32.65;;;29.25;;
60038;SDS011;45916;52.734;6.544;2023-04-10T08:08:16;30.80;;;27.80;;
60038;SDS011;45916;52.734;6.544;2023-04-10T08:10:42;32.85;;;29.38;;
60038;SDS011;45916;52.734;6.544;2023-04-10T08:13:08;31.92;;;28.67;;
60038;SDS011;45916;52.734;6.544;2023-04-10T08:15:33;31.48;;;28.27;;
60038;SDS011;45916;52.734;6.544;2023-04-10T08:17:59;28.75;;;25.80;;
60038;SDS011;45916;52.734;6.544;2023-04-10T08:20:25;28.17;;;25.40;;
60038;SDS011;45916;52.734;6.544;2023-04-10T08:22:52;28.92;;;25.92;;
60038;SDS011;45916;52.734;6.544;2023-04-10T08:25:18;26.75;;;23.92;;
60038;SDS011;45916;52.734;6.544;2023-04-10T08:27:44;27.48;;;24.42;;
60038;SDS011;45916;52.734;6.544;2023-04-10T08:30:10;26.08;;;23.35;;
60038;SDS011;45916;52.734;6.544;2023-04-10T08:32:35;24.98;;;22.38;;
60038;SDS011;45916;52.734;6.544;2023-04-10T08:35:02;21.95;;;19.52;;
60038;SDS011;45916;52.734;6.544;2023-04-10T08:37:28;22.67;;;20.25;;
60038;SDS011;45916;52.734;6.544;2023-04-10T08:39:54;24.23;;;21.70;;
60038;SDS011;45916;52.734;6.544;2023-04-10T08:42:20;22.23;;;19.48;;
60038;SDS011;45916;52.734;6.544;2023-04-10T08:44:47;22.20;;;19.85;;
60038;SDS011;45916;52.734;6.544;2023-04-10T08:47:14;21.23;;;19.00;;
60038;SDS011;45916;52.734;6.544;2023-04-10T08:49:46;22.27;;;19.98;;
60038;SDS011;45916;52.734;6.544;2023-04-10T08:52:19;19.73;;;17.63;;
60038;SDS011;45916;52.734;6.544;2023-04-10T08:54:47;22.15;;;18.95;;
60038;SDS011;45916;52.734;6.544;2023-04-10T08:57:17;21.92;;;19.63;;
60038;SDS011;45916;52.734;6.544;2023-04-10T08:59:49;21.63;;;17.83;;
60038;SDS011;45916;52.734;6.544;2023-04-10T09:02:18;18.02;;;16.13;;
60038;SDS011;45916;52.734;6.544;2023-04-10T09:04:46;20.35;;;18.00;;
60038;SDS011;45916;52.734;6.544;2023-04-10T09:07:14;19.33;;;17.30;;
60038;SDS011;45916;52.734;6.544;2023-04-10T09:09:40;16.27;;;14.32;;
60038;SDS011;45916;52.734;6.544;2023-04-10T09:12:06;16.27;;;14.57;;
60038;SDS011;45916;52.734;6.544;2023-04-10T09:14:33;17.65;;;15.45;;
60038;SDS011;45916;52.734;6.544;2023-04-10T09:17:18;17.20;;;14.60;;
60038;SDS011;45916;52.734;6.544;2023-04-10T09:19:49;16.80;;;15.00;;
60038;SDS011;45916;52.734;6.544;2023-04-10T09:22:29;17.63;;;15.82;;
60038;SDS011;45916;52.734;6.544;2023-04-10T09:24:57;20.63;;;16.40;;
60038;SDS011;45916;52.734;6.544;2023-04-10T09:27:27;18.42;;;16.42;;
60038;SDS011;45916;52.734;6.544;2023-04-10T09:29:59;18.67;;;16.67;;
60038;SDS011;45916;52.734;6.544;2023-04-10T09:32:42;17.38;;;14.90;;
60038;SDS011;45916;52.734;6.544;2023-04-10T09:35:09;18.70;;;15.52;;
60038;SDS011;45916;52.734;6.544;2023-04-10T09:37:36;18.08;;;16.17;;
60038;SDS011;45916;52.734;6.544;2023-04-10T09:40:04;17.23;;;13.93;;
60038;SDS011;45916;52.734;6.544;2023-04-10T09:42:43;15.52;;;13.30;;
60038;SDS011;45916;52.734;6.544;2023-04-10T09:45:08;17.15;;;14.25;;
60038;SDS011;45916;52.734;6.544;2023-04-10T09:47:34;15.95;;;12.45;;
60038;SDS011;45916;52.734;6.544;2023-04-10T09:50:00;16.10;;;13.65;;
60038;SDS011;45916;52.734;6.544;2023-04-10T09:52:27;18.05;;;13.88;;
60038;SDS011;45916;52.734;6.544;2023-04-10T09:55:01;16.00;;;14.25;;
60038;SDS011;45916;52.734;6.544;2023-04-10T09:57:34;15.95;;;14.10;;
60038;SDS011;45916;52.734;6.544;2023-04-10T10:00:01;17.90;;;13.45;;
60038;SDS011;45916;52.734;6.544;2023-04-10T10:02:29;14.02;;;12.23;;
60038;SDS011;45916;52.734;6.544;2023-04-10T10:04:57;15.50;;;13.38;;
60038;SDS011;45916;52.734;6.544;2023-04-10T10:07:26;14.27;;;12.05;;
60038;SDS011;45916;52.734;6.544;2023-04-10T10:09:54;14.48;;;12.23;;
60038;SDS011;45916;52.734;6.544;2023-04-10T10:12:21;14.25;;;11.98;;
60038;SDS011;45916;52.734;6.544;2023-04-10T10:14:53;15.98;;;12.98;;
60038;SDS011;45916;52.734;6.544;2023-04-10T10:17:49;14.35;;;12.70;;
60038;SDS011;45916;52.734;6.544;2023-04-10T10:20:19;14.25;;;11.02;;
60038;SDS011;45916;52.734;6.544;2023-04-10T10:22:48;12.52;;;10.52;;
60038;SDS011;45916;52.734;6.544;2023-04-10T10:25:15;10.80;;;9.68;;
60038;SDS011;45916;52.734;6.544;2023-04-10T10:27:44;15.82;;;10.18;;
60038;SDS011;45916;52.734;6.544;2023-04-10T10:30:17;11.73;;;10.18;;
60038;SDS011;45916;52.734;6.544;2023-04-10T10:32:48;12.77;;;11.23;;
60038;SDS011;45916;52.734;6.544;2023-04-10T10:35:15;12.00;;;9.90;;
60038;SDS011;45916;52.734;6.544;2023-04-10T10:37:42;11.30;;;9.52;;
60038;SDS011;45916;52.734;6.544;2023-04-10T10:40:21;13.57;;;11.27;;
60038;SDS011;45916;52.734;6.544;2023-04-10T10:45:39;12.25;;;10.13;;
60038;SDS011;45916;52.734;6.544;2023-04-10T10:48:10;13.82;;;10.18;;
60038;SDS011;45916;52.734;6.544;2023-04-10T10:50:49;12.05;;;10.77;;
60038;SDS011;45916;52.734;6.544;2023-04-10T10:54:03;12.63;;;10.60;;
60038;SDS011;45916;52.734;6.544;2023-04-10T11:01:22;11.43;;;9.48;;
60038;SDS011;45916;52.734;6.544;2023-04-10T11:03:48;14.25;;;11.15;;
60038;SDS011;45916;52.734;6.544;2023-04-10T11:06:18;11.20;;;8.98;;
60038;SDS011;45916;52.734;6.544;2023-04-10T11:08:46;10.60;;;8.48;;
60038;SDS011;45916;52.734;6.544;2023-04-10T11:16:17;9.48;;;8.45;;
60038;SDS011;45916;52.734;6.544;2023-04-10T11:23:36;9.40;;;7.90;;
60038;SDS011;45916;52.734;6.544;2023-04-10T11:26:03;11.00;;;8.87;;
60038;SDS011;45916;52.734;6.544;2023-04-10T11:28:37;11.90;;;8.70;;
60038;SDS011;45916;52.734;6.544;2023-04-10T11:33:40;11.32;;;9.35;;
60038;SDS011;45916;52.734;6.544;2023-04-10T11:36:06;10.32;;;7.97;;
60038;SDS011;45916;52.734;6.544;2023-04-10T11:38:32;9.15;;;7.70;;
60038;SDS011;45916;52.734;6.544;2023-04-10T11:41:02;10.93;;;7.82;;
60038;SDS011;45916;52.734;6.544;2023-04-10T11:43:29;10.00;;;8.32;;
60038;SDS011;45916;52.734;6.544;2023-04-10T11:46:00;11.18;;;8.07;;
60038;SDS011;45916;52.734;6.544;2023-04-10T11:48:26;10.77;;;8.93;;
60038;SDS011;45916;52.734;6.544;2023-04-10T11:50:53;10.57;;;8.43;;
60038;SDS011;45916;52.734;6.544;2023-04-10T11:53:19;10.45;;;7.97;;
60038;SDS011;45916;52.734;6.544;2023-04-10T11:55:45;10.23;;;7.93;;
60038;SDS011;45916;52.734;6.544;2023-04-10T11:58:27;11.32;;;9.15;;
60038;SDS011;45916;52.734;6.544;2023-04-10T12:01:01;10.57;;;8.75;;
60038;SDS011;45916;52.734;6.544;2023-04-10T12:05:57;10.02;;;8.13;;
60038;SDS011;45916;52.734;6.544;2023-04-10T12:08:33;10.25;;;8.65;;
60038;SDS011;45916;52.734;6.544;2023-04-10T12:11:00;11.40;;;7.53;;
60038;SDS011;45916;52.734;6.544;2023-04-10T12:13:29;10.73;;;8.60;;
60038;SDS011;45916;52.734;6.544;2023-04-10T12:16:03;11.65;;;7.85;;
60038;SDS011;45916;52.734;6.544;2023-04-10T12:18:31;10.73;;;7.45;;
60038;SDS011;45916;52.734;6.544;2023-04-10T12:20:57;8.75;;;7.55;;
60038;SDS011;45916;52.734;6.544;2023-04-10T12:23:27;10.55;;;7.70;;
60038;SDS011;45916;52.734;6.544;2023-04-10T12:26:08;9.93;;;7.40;;
60038;SDS011;45916;52.734;6.544;2023-04-10T12:28:36;9.15;;;7.43;;
60038;SDS011;45916;52.734;6.544;2023-04-10T12:31:02;10.32;;;7.63;;
60038;SDS011;45916;52.734;6.544;2023-04-10T12:33:29;9.48;;;7.47;;
60038;SDS011;45916;52.734;6.544;2023-04-10T12:35:54;10.43;;;7.20;;
60038;SDS011;45916;52.734;6.544;2023-04-10T12:38:36;8.77;;;6.78;;
60038;SDS011;45916;52.734;6.544;2023-04-10T12:41:07;11.45;;;7.57;;
60038;SDS011;45916;52.734;6.544;2023-04-10T12:46:01;9.77;;;7.47;;
60038;SDS011;45916;52.734;6.544;2023-04-10T12:48:28;8.95;;;7.43;;
60038;SDS011;45916;52.734;6.544;2023-04-10T12:50:53;11.07;;;8.68;;
60038;SDS011;45916;52.734;6.544;2023-04-10T12:53:19;10.00;;;8.02;;
60038;SDS011;45916;52.734;6.544;2023-04-10T12:56:04;11.05;;;7.50;;
60038;SDS011;45916;52.734;6.544;2023-04-10T12:58:33;8.50;;;7.45;;
60038;SDS011;45916;52.734;6.544;2023-04-10T13:01:02;8.77;;;6.65;;
60038;SDS011;45916;52.734;6.544;2023-04-10T13:03:29;8.75;;;7.45;;
60038;SDS011;45916;52.734;6.544;2023-04-10T13:05:57;8.80;;;7.25;;
60038;SDS011;45916;52.734;6.544;2023-04-10T13:08:23;10.23;;;8.10;;
60038;SDS011;45916;52.734;6.544;2023-04-10T13:10:50;8.50;;;6.80;;
60038;SDS011;45916;52.734;6.544;2023-04-10T13:13:16;8.40;;;7.45;;
60038;SDS011;45916;52.734;6.544;2023-04-10T13:15:41;11.60;;;7.78;;
60038;SDS011;45916;52.734;6.544;2023-04-10T13:18:07;9.57;;;7.43;;
60038;SDS011;45916;52.734;6.544;2023-04-10T13:20:38;10.35;;;8.07;;
60038;SDS011;45916;52.734;6.544;2023-04-10T13:23:05;9.50;;;7.10;;
60038;SDS011;45916;52.734;6.544;2023-04-10T13:25:31;9.93;;;7.65;;
60038;SDS011;45916;52.734;6.544;2023-04-10T13:28:01;8.45;;;7.40;;
60038;SDS011;45916;52.734;6.544;2023-04-10T13:30:33;8.40;;;6.82;;
60038;SDS011;45916;52.734;6.544;2023-04-10T13:33:00;9.10;;;7.25;;
60038;SDS011;45916;52.734;6.544;2023-04-10T13:35:26;11.50;;;7.45;;
60038;SDS011;45916;52.734;6.544;2023-04-10T13:37:51;8.63;;;6.97;;
60038;SDS011;45916;52.734;6.544;2023-04-10T13:40:18;10.40;;;7.75;;
60038;SDS011;45916;52.734;6.544;2023-04-10T13:42:45;8.52;;;6.95;;
60038;SDS011;45916;52.734;6.544;2023-04-10T13:45:12;10.45;;;7.88;;
60038;SDS011;45916;52.734;6.544;2023-04-10T13:47:38;9.35;;;7.57;;
60038;SDS011;45916;52.734;6.544;2023-04-10T13:50:03;8.70;;;7.22;;
60038;SDS011;45916;52.734;6.544;2023-04-10T13:52:30;9.02;;;7.47;;
60038;SDS011;45916;52.734;6.544;2023-04-10T13:54:55;11.00;;;8.48;;
60038;SDS011;45916;52.734;6.544;2023-04-10T13:57:21;8.85;;;7.20;;
60038;SDS011;45916;52.734;6.544;2023-04-10T13:59:47;10.95;;;7.75;;
60038;SDS011;45916;52.734;6.544;2023-04-10T14:02:12;9.75;;;7.57;;
60038;SDS011;45916;52.734;6.544;2023-04-10T14:04:38;10.85;;;8.02;;
60038;SDS011;45916;52.734;6.544;2023-04-10T14:07:05;9.93;;;6.55;;
60038;SDS011;45916;52.734;6.544;2023-04-10T14:09:30;9.38;;;7.35;;
60038;SDS011;45916;52.734;6.544;2023-04-10T14:11:56;9.35;;;7.85;;
60038;SDS011;45916;52.734;6.544;2023-04-10T14:14:22;9.30;;;6.68;;
60038;SDS011;45916;52.734;6.544;2023-04-10T14:16:48;11.00;;;8.02;;
60038;SDS011;45916;52.734;6.544;2023-04-10T14:19:14;10.32;;;7.30;;
60038;SDS011;45916;52.734;6.544;2023-04-10T14:21:40;9.55;;;7.13;;
60038;SDS011;45916;52.734;6.544;2023-04-10T14:24:07;9.65;;;6.80;;
60038;SDS011;45916;52.734;6.544;2023-04-10T14:26:33;9.85;;;7.80;;
60038;SDS011;45916;52.734;6.544;2023-04-10T14:28:59;8.75;;;6.55;;
60038;SDS011;45916;52.734;6.544;2023-04-10T14:31:25;10.13;;;6.78;;
60038;SDS011;45916;52.734;6.544;2023-04-10T14:33:50;9.45;;;7.53;;
60038;SDS011;45916;52.734;6.544;2023-04-10T14:36:16;9.50;;;7.18;;
60038;SDS011;45916;52.734;6.544;2023-04-10T14:38:42;9.63;;;7.22;;
60038;SDS011;45916;52.734;6.544;2023-04-10T14:41:07;10.75;;;7.95;;
60038;SDS011;45916;52.734;6.544;2023-04-10T14:43:33;10.13;;;7.55;;
60038;SDS011;45916;52.734;6.544;2023-04-10T14:45:59;9.25;;;7.00;;
60038;SDS011;45916;52.734;6.544;2023-04-10T14:48:24;10.30;;;7.25;;
60038;SDS011;45916;52.734;6.544;2023-04-10T14:50:50;8.13;;;6.63;;
60038;SDS011;45916;52.734;6.544;2023-04-10T14:53:16;10.10;;;7.43;;
60038;SDS011;45916;52.734;6.544;2023-04-10T14:55:41;9.77;;;7.15;;
60038;SDS011;45916;52.734;6.544;2023-04-10T14:58:07;9.52;;;7.93;;
60038;SDS011;45916;52.734;6.544;2023-04-10T15:00:33;10.45;;;7.90;;
60038;SDS011;45916;52.734;6.544;2023-04-10T15:02:59;8.68;;;7.13;;